Time;durP1;ratioP1;P1;durP2;ratioP2;P2;SDS_P1;SDS_P2;PMS_P1;PMS_P2;Temp;Humidity;BMP_temperature;BMP_pressure;BME280_temperature;BME280_humidity;BME280_pressure;Samples;Min_cycle;Max_cycle;Signal;HPM_P1;HPM_P2
2022/06/14 00:01:42;;;;;;;17.15;7.45;;;;;;;13.13;61.73;102313.94;5009628;28;20068;-69
2022/06/14 00:04:07;;;;;;;14.75;6.57;;;;;;;13.20;61.75;102322.50;5012106;28;20072;-69
2022/06/14 00:06:33;;;;;;;14.82;6.72;;;;;;;13.14;61.93;102321.00;5002937;28;20038;-69
2022/06/14 00:08:59;;;;;;;17.17;6.90;;;;;;;13.03;62.07;102315.34;5012561;28;20025;-69
2022/06/14 00:11:32;;;;;;;14.95;6.88;;;;;;;12.99;62.11;102318.25;5008639;28;20045;-69
2022/06/14 00:13:59;;;;;;;18.13;7.63;;;;;;;12.87;62.19;102322.38;5009553;28;20037;-69
2022/06/14 00:16:26;;;;;;;15.05;6.40;;;;;;;12.89;62.22;102310.69;5009222;28;20509;-69
2022/06/14 00:18:52;;;;;;;16.60;6.75;;;;;;;12.80;62.53;102311.16;5007488;28;20097;-70
2022/06/14 00:21:20;;;;;;;16.65;7.40;;;;;;;12.77;62.70;102316.63;5011801;28;20025;-69
2022/06/14 00:23:47;;;;;;;13.90;6.38;;;;;;;12.81;62.48;102306.66;5021312;28;20038;-70
2022/06/14 00:26:13;;;;;;;16.05;7.32;;;;;;;12.76;62.72;102306.03;5013435;28;20238;-69
2022/06/14 00:28:42;;;;;;;18.50;7.50;;;;;;;12.72;62.66;102311.50;5030151;28;20034;-69
2022/06/14 00:31:11;;;;;;;;;;;;;;;12.96;60.46;102314.78;5033336;28;20052;-69
2022/06/14 00:33:39;;;;;;;18.98;6.35;;;;;;;12.69;62.64;102310.78;5031109;28;19920;-69
2022/06/14 00:36:19;;;;;;;12.25;7.28;;;;;;;12.64;62.48;102312.81;5031861;28;20025;-70
2022/06/14 00:38:45;;;;;;;16.67;7.03;;;;;;;12.56;63.04;102306.97;5010898;28;20029;-69
2022/06/14 00:41:38;;;;;;;13.52;7.05;;;;;;;12.50;63.06;102300.16;5031482;28;20025;-70
2022/06/14 00:44:09;;;;;;;15.63;7.97;;;;;;;12.43;63.29;102293.38;4983576;28;20503;-69
2022/06/14 00:46:58;;;;;;;15.10;7.10;;;;;;;12.51;62.89;102299.22;5029469;28;20029;-69
2022/06/14 00:49:30;;;;;;;15.30;7.63;;;;;;;12.47;63.11;102301.16;5031514;28;20033;-69
2022/06/14 00:52:02;;;;;;;17.23;7.40;;;;;;;12.25;63.90;102285.28;5030465;28;20037;-69
2022/06/14 00:54:34;;;;;;;14.13;7.68;;;;;;;12.23;63.81;102296.97;5028014;28;20112;-69
2022/06/14 00:57:08;;;;;;;16.00;7.85;;;;;;;12.07;64.33;102293.28;5031415;28;20651;-69
2022/06/14 00:59:54;;;;;;;14.95;7.93;;;;;;;12.21;63.50;102289.06;5013002;28;20400;-69
2022/06/14 01:02:28;;;;;;;17.02;8.73;;;;;;;12.18;64.08;102288.34;5027930;28;20030;-69
2022/06/14 01:04:55;;;;;;;14.95;8.18;;;;;;;12.08;64.02;102282.53;5030609;28;20029;-70
2022/06/14 01:07:33;;;;;;;17.80;8.80;;;;;;;12.10;63.85;102288.69;5031642;28;20033;-69
2022/06/14 01:10:12;;;;;;;17.00;8.30;;;;;;;12.04;64.38;102284.50;5030295;28;20071;-69
2022/06/14 01:12:44;;;;;;;15.13;7.97;;;;;;;12.04;64.18;102291.63;5027510;28;20061;-69
2022/06/14 01:15:23;;;;;;;20.52;10.35;;;;;;;11.95;64.42;102294.72;5031027;28;20136;-69
2022/06/14 01:17:58;;;;;;;18.40;8.70;;;;;;;11.90;65.07;102292.25;5030260;28;20386;-70
2022/06/14 01:20:26;;;;;;;18.25;8.93;;;;;;;11.88;65.07;102294.13;5012414;28;20026;-69
2022/06/14 01:22:54;;;;;;;20.38;9.32;;;;;;;11.80;65.36;102294.44;5030673;28;20060;-69
2022/06/14 01:25:19;;;;;;;17.20;8.88;;;;;;;11.80;65.77;102290.91;5012602;28;20046;-69
2022/06/14 01:27:45;;;;;;;16.67;8.73;;;;;;;11.85;65.67;102291.59;5011944;28;20079;-70
2022/06/14 01:30:15;;;;;;;17.08;8.55;;;;;;;11.85;65.52;102288.91;5013470;28;20045;-69
2022/06/14 01:32:54;;;;;;;17.00;8.35;;;;;;;11.89;64.88;102284.34;5029709;28;20036;-70
2022/06/14 01:35:27;;;;;;;16.77;8.10;;;;;;;11.85;65.29;102294.25;5011176;28;20037;-69
2022/06/14 01:37:56;;;;;;;15.50;8.30;;;;;;;11.70;66.08;102278.91;5030925;28;20746;-69
2022/06/14 01:40:31;;;;;;;20.27;8.73;;;;;;;11.72;65.56;102277.06;5029821;28;20030;-69
2022/06/14 01:43:13;;;;;;;13.05;7.45;;;;;;;11.81;64.86;102284.66;5011965;28;20021;-69
2022/06/14 01:46:05;;;;;;;16.45;7.88;;;;;;;11.72;64.82;102275.25;5030091;28;20035;-69
2022/06/14 01:51:50;;;;;;;14.82;7.68;;;;;;;11.64;65.60;102279.19;5029631;28;20029;-69
2022/06/14 01:52:02;;;;;;;15.60;7.75;;;;;;;11.53;65.92;102275.22;5028767;28;20492;-69
2022/06/14 01:54:38;;;;;;;14.50;8.07;;;;;;;11.47;65.51;102278.16;5028336;28;20014;-69
2022/06/14 01:57:26;;;;;;;12.55;7.60;;;;;;;11.59;65.42;102274.09;5029320;28;20388;-69
2022/06/14 02:00:00;;;;;;;15.35;7.93;;;;;;;11.55;65.69;102273.34;5030532;28;20052;-69
2022/06/14 02:02:31;;;;;;;14.73;7.70;;;;;;;11.46;65.98;102275.56;5029800;28;20499;-70
2022/06/14 02:05:19;;;;;;;14.70;7.55;;;;;;;11.47;65.66;102271.94;5029481;28;20029;-69
2022/06/14 02:07:58;;;;;;;14.80;6.80;;;;;;;11.49;66.05;102270.09;5029590;28;20374;-69
2022/06/14 02:10:40;;;;;;;18.55;7.32;;;;;;;11.41;65.60;102262.41;5030391;28;20036;-69
2022/06/14 02:13:30;;;;;;;13.32;6.80;;;;;;;11.41;65.85;102261.56;5028641;28;20045;-69
2022/06/14 02:16:05;;;;;;;14.98;7.47;;;;;;;11.31;66.05;102261.09;5030747;28;20036;-69
2022/06/14 02:18:38;;;;;;;16.02;6.75;;;;;;;11.20;66.40;102252.72;5010147;28;20034;-69
2022/06/14 02:21:11;;;;;;;15.73;7.10;;;;;;;11.16;66.60;102240.47;5027417;28;20079;-69
2022/06/14 02:23:49;;;;;;;17.50;7.78;;;;;;;11.17;66.98;102250.19;5011703;28;20041;-69
2022/06/14 02:26:38;;;;;;;13.13;6.00;;;;;;;11.20;66.55;102253.56;5026059;28;20079;-69
2022/06/14 02:29:23;;;;;;;13.90;6.78;;;;;;;11.18;66.36;102246.56;5011118;28;20542;-69
2022/06/14 02:32:09;;;;;;;10.82;6.63;;;;;;;11.10;66.88;102249.59;5012444;28;20476;-69
2022/06/14 02:34:47;;;;;;;13.38;6.57;;;;;;;11.07;67.06;102245.25;5029907;28;20115;-69
2022/06/14 02:37:30;;;;;;;12.35;6.78;;;;;;;11.08;66.80;102249.63;5027247;28;20033;-69
2022/06/14 02:40:04;;;;;;;14.45;6.80;;;;;;;10.92;67.49;102243.25;5027840;28;20030;-69
2022/06/14 02:42:38;;;;;;;12.13;7.10;;;;;;;10.95;67.74;102247.56;5029688;28;20227;-69
2022/06/14 02:45:16;;;;;;;16.95;6.95;;;;;;;10.94;67.08;102237.84;5028352;28;20033;-69
2022/06/14 02:47:48;;;;;;;10.02;6.72;;;;;;;10.94;67.48;102238.69;5027614;28;20033;-69
2022/06/14 02:50:20;;;;;;;12.68;6.72;;;;;;;10.91;67.43;102245.03;5029178;28;20037;-69
2022/06/14 02:53:05;;;;;;;10.10;6.97;;;;;;;10.96;67.67;102234.19;5012205;28;20115;-69
2022/06/14 02:55:45;;;;;;;11.45;7.32;;;;;;;10.96;67.24;102239.50;5008754;28;20034;-69
2022/06/14 02:58:18;;;;;;;11.63;7.10;;;;;;;10.94;67.39;102238.69;5026702;28;20029;-69
2022/06/14 03:00:53;;;;;;;11.23;7.07;;;;;;;10.93;67.56;102236.13;5030852;28;20379;-69
2022/06/14 03:03:44;;;;;;;13.85;7.57;;;;;;;10.86;67.92;102235.53;5028772;28;20048;-69
2022/06/14 03:06:32;;;;;;;15.90;7.43;;;;;;;10.87;67.85;102242.56;5027106;28;20037;-69
2022/06/14 03:09:03;;;;;;;14.95;7.85;;;;;;;10.80;67.89;102238.44;5027176;28;20472;-69
2022/06/14 03:11:51;;;;;;;12.23;7.07;;;;;;;10.74;67.91;102218.25;5012264;28;20029;-69
2022/06/14 03:14:24;;;;;;;13.27;8.00;;;;;;;10.79;68.10;102240.22;5030252;28;20404;-69
2022/06/14 03:17:13;;;;;;;14.23;7.57;;;;;;;10.75;67.78;102241.28;5032330;28;20338;-69
2022/06/14 03:19:46;;;;;;;12.55;7.55;;;;;;;10.67;68.39;102232.75;5019724;28;20048;-69
2022/06/14 03:22:40;;;;;;;15.77;7.90;;;;;;;10.65;68.49;102242.59;5033717;28;20032;-69
2022/06/14 03:25:18;;;;;;;13.77;7.70;;;;;;;10.65;67.95;102248.78;4946210;28;20131;-69
2022/06/14 03:27:51;;;;;;;19.08;8.32;;;;;;;10.56;68.75;102250.94;5033091;28;20076;-69
2022/06/14 03:30:24;;;;;;;16.98;8.43;;;;;;;10.59;68.66;102238.38;5031907;28;20384;-69
2022/06/14 03:33:10;;;;;;;17.10;8.90;;;;;;;10.65;68.07;102239.94;5032188;28;20032;-69
2022/06/14 03:35:41;;;;;;;15.30;8.52;;;;;;;10.61;68.70;102243.63;5032966;28;20056;-69
2022/06/14 03:38:30;;;;;;;18.90;8.68;;;;;;;10.60;68.74;102244.56;5015010;28;20033;-69
2022/06/14 03:40:55;;;;;;;12.88;7.82;;;;;;;10.58;68.98;102246.41;5001691;28;20049;-69
2022/06/14 03:43:21;;;;;;;13.48;8.02;;;;;;;10.58;68.88;102238.44;5032488;28;20099;-69
2022/06/14 03:45:56;;;;;;;14.93;7.88;;;;;;;10.57;69.17;102237.56;5031982;28;20036;-69
2022/06/14 03:48:22;;;;;;;16.25;8.50;;;;;;;10.48;69.22;102242.41;5032971;28;20442;-70
2022/06/14 03:51:13;;;;;;;14.73;7.85;;;;;;;10.59;68.76;102248.13;5014932;28;20037;-69
2022/06/14 03:53:47;;;;;;;15.18;8.18;;;;;;;10.48;68.90;102242.41;5028532;28;20381;-70
2022/06/14 03:56:33;;;;;;;13.98;8.02;;;;;;;10.50;69.13;102237.88;5015688;28;20029;-69
2022/06/14 03:59:17;;;;;;;17.35;8.20;;;;;;;10.45;68.94;102240.75;5030171;28;20036;-69
2022/06/14 04:01:52;;;;;;;12.70;7.82;;;;;;;10.43;69.58;102237.25;5029511;28;20037;-69
2022/06/14 04:04:34;;;;;;;13.45;7.40;;;;;;;10.46;69.27;102253.97;5031090;28;20100;-69
2022/06/14 04:07:13;;;;;;;15.25;8.05;;;;;;;10.46;69.19;102250.44;5032523;28;20500;-69
2022/06/14 04:09:48;;;;;;;14.77;7.90;;;;;;;10.48;69.58;102251.25;5032281;28;20103;-69
2022/06/14 04:12:25;;;;;;;17.90;9.07;;;;;;;10.49;69.35;102247.66;5031251;28;20026;-69
2022/06/14 04:15:11;;;;;;;19.70;9.38;;;;;;;10.43;69.98;102250.56;5032293;28;20045;-70
2022/06/14 04:17:58;;;;;;;19.33;10.20;;;;;;;10.56;69.86;102257.13;5029733;28;20037;-69
2022/06/14 04:20:41;;;;;;;15.50;9.95;;;;;;;10.59;70.08;102257.00;5029746;28;20120;-69
2022/06/14 04:23:29;;;;;;;19.80;9.43;;;;;;;10.57;70.72;102258.00;5011017;28;20053;-69
2022/06/14 04:26:08;;;;;;;17.85;9.48;;;;;;;10.60;70.98;102252.56;5030084;28;20029;-69
2022/06/14 04:28:54;;;;;;;17.77;10.50;;;;;;;10.64;70.64;102248.81;5030678;28;20042;-69
2022/06/14 04:31:49;;;;;;;14.70;9.20;;;;;;;10.69;70.97;102247.72;5029155;28;20080;-69
2022/06/14 04:34:25;;;;;;;15.63;9.95;;;;;;;10.69;71.54;102253.03;5028662;28;20459;-69
2022/06/14 04:37:01;;;;;;;17.83;9.80;;;;;;;10.82;71.30;102256.03;5030322;28;20049;-69
2022/06/14 04:39:53;;;;;;;17.90;9.73;;;;;;;10.86;71.05;102260.34;5030412;28;20033;-69
2022/06/14 04:42:31;;;;;;;14.68;8.63;;;;;;;10.84;71.52;102263.97;5009326;28;20045;-69
2022/06/14 04:45:07;;;;;;;18.40;10.05;;;;;;;10.86;72.27;102260.34;5028328;28;20048;-69
2022/06/14 04:47:57;;;;;;;18.27;9.90;;;;;;;10.98;72.30;102261.63;5031979;28;20038;-70
2022/06/14 04:50:29;;;;;;;19.50;10.57;;;;;;;11.04;72.75;102253.38;5013677;28;20025;-70
2022/06/14 04:53:17;;;;;;;16.13;10.00;;;;;;;11.16;71.62;102253.78;5030674;28;20042;-69
2022/06/14 04:55:58;;;;;;;19.25;10.95;;;;;;;11.22;72.37;102264.16;5029402;28;20033;-70
2022/06/14 04:58:41;;;;;;;24.48;11.30;;;;;;;11.30;72.22;102256.72;5011110;28;20037;-69
2022/06/14 05:01:14;;;;;;;24.52;12.18;;;;;;;11.35;73.27;102255.59;5031132;28;20025;-69
2022/06/14 05:03:46;;;;;;;18.20;11.52;;;;;;;11.46;73.18;102257.75;5010336;28;20038;-69
2022/06/14 05:06:24;;;;;;;20.20;11.02;;;;;;;11.52;73.23;102256.63;5031393;28;20036;-70
2022/06/14 05:09:00;;;;;;;20.45;11.23;;;;;;;11.59;73.59;102260.78;5011168;28;20025;-70
2022/06/14 05:11:29;;;;;;;20.33;10.45;;;;;;;11.68;73.35;102260.34;5010589;28;20460;-69
2022/06/14 05:14:01;;;;;;;18.58;10.38;;;;;;;11.81;73.33;102265.97;5029073;28;20033;-69
2022/06/14 05:16:35;;;;;;;20.52;10.30;;;;;;;11.82;73.41;102251.72;5030428;28;20055;-70
2022/06/14 05:19:19;;;;;;;23.27;10.38;;;;;;;11.96;74.26;102270.63;5030810;28;20044;-70
2022/06/14 05:22:03;;;;;;;23.13;9.60;;;;;;;12.16;72.64;102271.53;5028086;28;20172;-69
2022/06/14 05:24:30;;;;;;;22.13;9.63;;;;;;;12.19;72.84;102258.03;5030364;28;20073;-69
2022/06/14 05:27:05;;;;;;;17.15;8.30;;;;;;;12.25;73.92;102261.28;5031152;28;20025;-69
2022/06/14 05:29:35;;;;;;;17.45;8.48;;;;;;;12.38;72.74;102268.69;5029738;28;20412;-69
2022/06/14 05:32:25;;;;;;;18.90;8.02;;;;;;;12.52;72.30;102262.69;5011402;28;20025;-70
2022/06/14 05:34:56;;;;;;;16.80;8.57;;;;;;;12.67;71.38;102261.94;5030690;28;20029;-69
2022/06/14 05:38:00;;;;;;;20.80;9.00;;;;;;;12.79;70.82;102261.34;5010956;28;20048;-69
2022/06/14 05:40:37;;;;;;;16.40;9.32;;;;;;;12.95;70.57;102266.78;5016313;28;20037;-69
2022/06/14 05:43:14;;;;;;;23.00;8.88;;;;;;;13.04;70.01;102266.31;5010524;28;20388;-70
2022/06/14 05:45:45;;;;;;;22.73;8.13;;;;;;;13.10;68.74;102262.47;5028681;28;20110;-69
2022/06/14 05:48:20;;;;;;;14.30;7.20;;;;;;;13.28;68.96;102274.94;5028514;28;20021;-69
2022/06/14 05:50:50;;;;;;;13.68;7.68;;;;;;;13.37;69.08;102265.56;5030264;28;20036;-70
2022/06/14 05:53:34;;;;;;;15.07;6.72;;;;;;;13.49;68.26;102266.72;5028698;28;20164;-69
2022/06/14 05:56:28;;;;;;;12.90;6.10;;;;;;;13.60;67.32;102272.38;5030418;28;20438;-69
2022/06/14 05:58:53;;;;;;;16.48;6.28;;;;;;;13.75;66.52;102268.88;5028186;28;20384;-69
2022/06/14 06:01:34;;;;;;;17.33;6.13;;;;;;;13.88;65.60;102278.91;5027718;28;20021;-69
2022/06/14 06:04:08;;;;;;;12.30;5.28;;;;;;;13.95;64.42;102274.97;5011014;28;20048;-69
2022/06/14 06:06:41;;;;;;;10.98;5.53;;;;;;;14.01;64.72;102288.88;5024456;28;20069;-70
2022/06/14 06:09:31;;;;;;;14.05;5.35;;;;;;;14.13;64.42;102294.50;5030085;28;20078;-69
2022/06/14 06:12:23;;;;;;;10.30;5.07;;;;;;;14.22;64.17;102286.84;5030233;28;20746;-69
2022/06/14 06:14:55;;;;;;;12.30;5.10;;;;;;;14.35;62.94;102292.34;5027212;28;20025;-69
2022/06/14 06:17:33;;;;;;;12.77;5.22;;;;;;;14.42;63.14;102291.09;5030702;28;20393;-70
2022/06/14 06:20:13;;;;;;;8.52;4.22;;;;;;;14.44;62.52;102286.50;5028044;28;20108;-70
2022/06/14 06:22:48;;;;;;;11.95;4.85;;;;;;;14.48;62.58;102282.69;5029197;28;20404;-69
2022/06/14 06:25:25;;;;;;;9.15;4.60;;;;;;;14.59;61.80;102284.81;5029213;28;20492;-69
2022/06/14 06:28:11;;;;;;;12.52;4.72;;;;;;;14.75;59.47;102292.81;5011706;28;20046;-70
2022/06/14 06:31:00;;;;;;;10.80;4.07;;;;;;;14.85;59.20;102282.44;5028127;28;20040;-70
2022/06/14 06:33:29;;;;;;;11.50;4.47;;;;;;;14.90;58.38;102285.72;5024495;28;20030;-69
2022/06/14 06:36:20;;;;;;;13.85;4.70;;;;;;;14.94;58.95;102277.41;5012456;28;20025;-69
2022/06/14 06:39:06;;;;;;;10.73;4.00;;;;;;;15.10;57.27;102288.09;5012541;28;20025;-70
2022/06/14 06:41:50;;;;;;;10.60;4.22;;;;;;;15.12;57.90;102282.66;5010417;28;20022;-70
2022/06/14 06:44:54;;;;;;;8.02;4.15;;;;;;;15.21;58.77;102292.81;5028446;28;20025;-69
2022/06/14 06:47:30;;;;;;;11.52;4.50;;;;;;;15.36;56.51;102291.91;5028768;28;20026;-69
2022/06/14 06:50:00;;;;;;;9.35;3.95;;;;;;;15.31;55.40;102288.63;5029920;28;20105;-69
2022/06/14 06:52:50;;;;;;;12.23;3.92;;;;;;;15.48;57.66;102289.44;5030787;28;20037;-70
2022/06/14 06:55:29;;;;;;;11.68;5.35;;;;;;;15.60;57.54;102294.06;5034388;28;20041;-69
2022/06/14 06:57:58;;;;;;;;;;;;;;;15.77;57.30;102299.28;5014362;28;20551;-69
2022/06/14 07:00:24;;;;;;;10.30;4.40;;;;;;;15.78;55.30;102290.25;5034225;28;20451;-70
2022/06/14 07:03:12;;;;;;;10.10;4.85;;;;;;;15.90;56.30;102289.50;5032819;28;20104;-70
2022/06/14 07:05:39;;;;;;;12.48;4.72;;;;;;;15.98;53.94;102302.44;5034109;28;20468;-70
2022/06/14 07:08:13;;;;;;;11.05;5.50;;;;;;;16.00;53.92;102283.53;5033231;28;20112;-70
2022/06/14 07:10:43;;;;;;;10.55;4.20;;;;;;;16.09;53.13;102296.41;5033866;28;20025;-69
2022/06/14 07:13:21;;;;;;;12.70;4.07;;;;;;;16.25;51.88;102286.41;5031925;28;20480;-70
2022/06/14 07:15:53;;;;;;;11.13;4.22;;;;;;;16.29;51.08;102292.44;5015514;28;20048;-69
2022/06/14 07:18:31;;;;;;;11.00;4.20;;;;;;;16.25;50.00;102298.97;5033857;28;20476;-70
2022/06/14 07:21:09;;;;;;;6.32;3.33;;;;;;;16.50;49.30;102299.13;5033752;28;20029;-70
2022/06/14 07:23:55;;;;;;;6.18;2.67;;;;;;;16.50;49.16;102290.19;5031207;28;20037;-69
2022/06/14 07:26:29;;;;;;;8.13;3.20;;;;;;;16.50;48.24;102299.13;5014101;28;20065;-70
2022/06/14 07:28:57;;;;;;;9.48;3.85;;;;;;;16.52;50.36;102285.59;5031317;28;20029;-70
2022/06/14 07:31:42;;;;;;;7.50;3.60;;;;;;;16.72;49.84;102293.19;5030512;28;20025;-69
2022/06/14 07:34:10;;;;;;;7.40;3.42;;;;;;;16.70;49.37;102291.56;5013172;28;20029;-70
2022/06/14 07:36:56;;;;;;;7.10;2.92;;;;;;;16.78;45.23;102289.28;5032582;28;20056;-70
2022/06/14 07:39:25;;;;;;;7.38;3.00;;;;;;;16.80;45.91;102285.53;5032173;28;20030;-70
2022/06/14 07:42:17;;;;;;;6.65;3.22;;;;;;;16.94;47.34;102291.78;5015221;28;20033;-70
2022/06/14 07:44:51;;;;;;;7.55;3.00;;;;;;;17.14;46.53;102293.16;5031065;28;20021;-70
2022/06/14 07:47:29;;;;;;;5.70;2.92;;;;;;;17.28;46.61;102295.75;5032786;28;20032;-70
2022/06/14 07:49:57;;;;;;;6.70;2.70;;;;;;;17.30;47.32;102287.59;5031709;28;20067;-70
2022/06/14 07:52:44;;;;;;;6.28;3.45;;;;;;;17.51;47.66;102294.19;5031576;28;20400;-70
2022/06/14 07:55:32;;;;;;;5.78;2.97;;;;;;;17.64;46.72;102291.50;5031804;28;20427;-70
2022/06/14 07:58:03;;;;;;;7.30;3.63;;;;;;;17.70;46.73;102294.59;5031781;28;20048;-70
2022/06/14 08:03:35;;;;;;;7.22;3.75;;;;;;;17.87;45.01;102289.91;5028920;28;20576;-70
2022/06/14 08:06:06;;;;;;;7.22;3.50;;;;;;;18.03;45.40;102298.63;5012457;28;20029;-70
2022/06/14 08:08:36;;;;;;;8.45;4.18;;;;;;;17.81;46.07;102285.81;5031717;28;20049;-70
2022/06/14 08:11:24;;;;;;;10.40;3.70;;;;;;;17.97;46.55;102291.00;5028990;28;20056;-70
2022/06/14 08:14:02;;;;;;;13.95;4.03;;;;;;;17.90;46.69;102290.56;5023791;28;20673;-70
2022/06/14 08:16:30;;;;;;;7.10;3.50;;;;;;;18.05;46.53;102283.22;5028503;28;20029;-70
2022/06/14 08:19:36;;;;;;;9.07;3.97;;;;;;;18.26;46.38;102283.50;5029238;28;20503;-70
2022/06/14 08:22:09;;;;;;;11.38;4.05;;;;;;;18.24;44.74;102274.69;5032337;28;20610;-70
2022/06/14 08:24:42;;;;;;;12.40;3.60;;;;;;;18.29;45.08;102271.63;5028597;28;20046;-70
2022/06/14 08:27:18;;;;;;;10.15;3.85;;;;;;;18.39;45.92;102272.69;5031529;28;20476;-70
2022/06/14 08:30:03;;;;;;;5.82;3.03;;;;;;;18.50;46.01;102269.19;5030960;28;20075;-70
2022/06/14 08:32:36;;;;;;;8.70;3.20;;;;;;;18.50;45.51;102267.38;5028331;28;20029;-70
2022/06/14 08:35:06;;;;;;;7.13;2.78;;;;;;;18.71;44.36;102275.69;5012418;28;20151;-70
2022/06/14 08:37:52;;;;;;;7.80;2.60;;;;;;;18.82;43.75;102266.81;5010506;28;20036;-67
2022/06/14 08:40:40;;;;;;;7.82;3.30;;;;;;;18.82;44.11;102256.03;5031055;28;20099;-67
2022/06/14 08:43:09;;;;;;;7.80;3.17;;;;;;;18.52;44.07;102261.88;5031462;28;20025;-68
2022/06/14 08:46:03;;;;;;;7.55;2.95;;;;;;;18.75;45.36;102268.28;5009614;28;20091;-71
2022/06/14 08:48:38;;;;;;;10.25;3.20;;;;;;;18.79;44.05;102262.50;5026682;28;20116;-73
2022/06/14 08:51:13;;;;;;;7.50;3.20;;;;;;;18.64;44.75;102268.19;5011827;28;20052;-71
2022/06/14 08:53:51;;;;;;;9.75;3.53;;;;;;;18.74;44.18;102269.25;5030459;28;20033;-68
2022/06/14 08:56:29;;;;;;;6.93;2.85;;;;;;;18.73;43.52;102259.41;5032278;28;20515;-67
2022/06/14 08:59:09;;;;;;;9.17;3.30;;;;;;;18.80;43.75;102253.47;5028389;28;20025;-67
2022/06/14 09:01:55;;;;;;;8.23;2.65;;;;;;;18.93;45.83;102260.63;5030170;28;20036;-68
2022/06/14 09:04:39;;;;;;;9.60;2.90;;;;;;;18.91;45.80;102260.72;5031049;28;20026;-69
2022/06/14 09:07:35;;;;;;;8.82;3.30;;;;;;;19.02;44.69;102262.63;5030733;28;20408;-66
2022/06/14 09:10:20;;;;;;;7.90;3.28;;;;;;;19.04;43.89;102258.84;5031012;28;20022;-68
2022/06/14 09:13:00;;;;;;;9.27;3.90;;;;;;;19.04;44.22;102258.84;5028376;28;20056;-66
2022/06/14 09:15:38;;;;;;;9.48;3.83;;;;;;;18.95;43.95;102253.28;5030392;28;20037;-68
2022/06/14 09:18:12;;;;;;;10.02;3.30;;;;;;;18.97;45.76;102254.91;5029242;28;20757;-65
2022/06/14 09:20:38;;;;;;;9.23;3.17;;;;;;;19.09;45.96;102257.59;5030339;28;20021;-65
2022/06/14 09:23:17;;;;;;;8.15;3.10;;;;;;;19.08;44.94;102243.28;5026939;28;20083;-65
2022/06/14 09:26:11;;;;;;;4.95;2.53;;;;;;;19.22;45.17;102261.94;5030955;28;20578;-65
2022/06/14 09:29:14;;;;;;;9.18;3.10;;;;;;;19.28;44.44;102263.31;5029821;28;20029;-75
2022/06/14 09:31:54;;;;;;;5.97;2.97;;;;;;;19.24;43.30;102259.16;5012903;28;20124;-75
2022/06/14 09:35:19;;;;;;;6.88;2.70;;;;;;;19.38;44.13;102255.34;5029842;28;20396;-76
2022/06/14 09:38:22;;;;;;;7.68;2.80;;;;;;;19.42;45.17;102241.53;4949327;28;20514;-76
2022/06/14 09:41:18;;;;;;;6.88;3.05;;;;;;;19.43;44.38;102245.94;4931366;29;20083;-73
2022/06/14 09:43:46;;;;;;;8.05;3.38;;;;;;;19.16;45.25;102242.69;5027606;28;20488;-74
2022/06/14 09:46:18;;;;;;;7.53;3.60;;;;;;;19.21;44.58;102237.81;5009878;28;20397;-76
2022/06/14 09:48:55;;;;;;;8.07;3.42;;;;;;;19.18;43.73;102232.66;5025192;28;20480;-76
2022/06/14 09:51:26;;;;;;;6.25;3.33;;;;;;;19.28;43.34;102236.34;5025310;28;20029;-78
2022/06/14 09:54:16;;;;;;;7.50;3.40;;;;;;;19.41;44.94;102223.63;5003697;28;20040;-75
2022/06/14 09:57:27;;;;;;;7.65;3.17;;;;;;;19.38;45.38;102228.38;5010227;28;20405;-79
2022/06/14 10:00:13;;;;;;;5.90;2.95;;;;;;;19.34;45.73;102225.06;5010458;28;20035;-72
2022/06/14 10:02:57;;;;;;;9.40;3.75;;;;;;;19.30;45.79;102220.91;5026487;28;20097;-79
2022/06/14 10:05:36;;;;;;;7.65;3.30;;;;;;;19.32;45.85;102216.22;5030441;28;20121;-78
2022/06/14 10:08:52;;;;;;;10.13;3.13;;;;;;;19.35;46.24;102215.97;5011415;28;20492;-77
2022/06/14 10:11:35;;;;;;;6.38;3.30;;;;;;;19.46;46.39;102224.09;4976349;28;20133;-75
2022/06/14 10:14:17;;;;;;;9.50;3.88;;;;;;;19.49;43.52;102218.47;5031596;28;20116;-76
2022/06/14 10:16:54;;;;;;;8.45;3.15;;;;;;;19.61;44.37;102218.47;5032104;28;20075;-77
2022/06/14 10:19:51;;;;;;;6.65;3.05;;;;;;;19.64;43.81;102216.38;5031316;28;20040;-77
2022/06/14 10:22:34;;;;;;;6.30;3.15;;;;;;;19.73;43.16;102212.13;5027090;28;20037;-77
2022/06/14 10:28:53;;;;;;;6.65;3.40;;;;;;;19.78;43.58;102203.66;5008572;28;20040;-77
2022/06/14 10:31:38;;;;;;;8.45;4.28;;;;;;;19.54;43.92;102199.22;5011338;28;20025;-66
2022/06/14 10:34:28;;;;;;;8.45;3.70;;;;;;;19.52;43.95;102188.53;5027372;28;20472;-67
2022/06/14 10:37:24;;;;;;;7.07;3.85;;;;;;;19.71;44.73;102185.25;5029551;28;20025;-71
2022/06/14 10:40:05;;;;;;;8.55;3.83;;;;;;;19.92;42.78;102185.34;5026911;28;20022;-75
2022/06/14 10:42:46;;;;;;;5.82;3.10;;;;;;;20.09;43.68;102173.19;5011054;28;20029;-74
2022/06/14 10:45:20;;;;;;;10.38;3.63;;;;;;;20.05;43.96;102181.66;5011251;28;20034;-71
2022/06/14 10:48:14;;;;;;;6.50;3.20;;;;;;;20.18;44.57;102179.66;5028251;28;20017;-76
2022/06/14 10:50:54;;;;;;;6.70;3.35;;;;;;;20.22;43.66;102177.56;5027143;28;20033;-65
2022/06/14 10:53:37;;;;;;;6.32;3.30;;;;;;;20.30;41.66;102172.38;5026265;28;20033;-67
2022/06/14 10:56:29;;;;;;;9.35;3.88;;;;;;;20.41;41.26;102175.03;5028190;28;20136;-67
2022/06/14 10:59:16;;;;;;;5.88;3.20;;;;;;;20.46;43.49;102162.00;5027670;28;20039;-67
2022/06/14 11:01:56;;;;;;;9.25;3.28;;;;;;;20.50;41.50;102168.00;5010098;28;20033;-69
2022/06/14 11:04:51;;;;;;;6.88;3.08;;;;;;;20.55;42.49;102157.69;5023520;28;20476;-70
2022/06/14 11:07:28;;;;;;;9.65;4.05;;;;;;;20.62;41.01;102161.59;5030619;28;20029;-71
2022/06/14 11:10:19;;;;;;;7.55;3.55;;;;;;;20.57;43.00;102153.88;5011019;28;20053;-71
2022/06/14 11:12:56;;;;;;;6.70;3.22;;;;;;;20.61;40.56;102158.03;5027799;28;20065;-73
2022/06/14 11:15:25;;;;;;;7.15;2.97;;;;;;;20.82;43.36;102155.38;5029550;28;20029;-72
2022/06/14 11:18:16;;;;;;;6.90;3.17;;;;;;;20.78;40.57;102156.59;5029402;28;20087;-72
2022/06/14 11:20:54;;;;;;;8.25;3.53;;;;;;;20.72;41.56;102153.56;5030384;28;20025;-69
2022/06/14 11:23:35;;;;;;;11.18;3.72;;;;;;;20.74;43.04;102152.44;5029413;28;20057;-70
2022/06/14 11:26:31;;;;;;;7.28;3.25;;;;;;;20.62;43.21;102148.94;5013032;28;20061;-72
2022/06/14 11:29:14;;;;;;;7.18;3.00;;;;;;;20.61;44.25;102143.66;5027128;28;20414;-70
2022/06/14 11:31:54;;;;;;;9.15;3.50;;;;;;;20.67;41.04;102126.91;5029018;28;20029;-69
2022/06/14 11:34:46;;;;;;;7.18;2.92;;;;;;;20.71;41.27;102139.19;5027737;28;20036;-68
2022/06/14 11:40:16;;;;;;;6.13;3.20;;;;;;;20.92;41.55;102131.06;5017597;22;20104;-69
2022/06/14 11:42:56;;;;;;;5.57;2.75;;;;;;;20.79;40.05;102122.28;5032796;28;20049;-66
2022/06/14 11:45:36;;;;;;;4.95;2.72;;;;;;;20.96;39.52;102120.84;5033838;28;20029;-66
2022/06/14 11:48:24;;;;;;;7.28;3.55;;;;;;;20.75;42.16;102118.16;5015628;28;20129;-68
2022/06/14 11:50:52;;;;;;;7.38;3.47;;;;;;;20.70;40.55;102121.22;5033562;28;20029;-68
2022/06/14 11:53:42;;;;;;;6.65;2.85;;;;;;;20.84;41.18;102115.50;5033237;28;20044;-69
2022/06/14 11:56:11;;;;;;;6.43;3.20;;;;;;;20.77;41.35;102106.22;5010451;28;20091;-69
2022/06/14 11:59:05;;;;;;;5.43;2.85;;;;;;;20.97;40.44;102117.13;5013018;28;20066;-68
2022/06/14 12:01:55;;;;;;;5.32;3.00;;;;;;;21.06;41.63;102119.91;5013587;28;20053;-68
2022/06/14 12:04:56;;;;;;;6.38;2.80;;;;;;;21.05;40.40;102115.47;5012412;28;20013;-67
2022/06/14 12:07:34;;;;;;;6.28;3.15;;;;;;;21.24;39.99;102113.88;5013377;28;20025;-69
2022/06/14 12:10:47;;;;;;;6.73;3.47;;;;;;;21.17;40.51;102115.41;5013140;28;20022;-69
2022/06/14 12:14:09;;;;;;;5.70;3.13;;;;;;;21.14;40.64;102108.41;4976910;28;20052;-70
2022/06/14 12:16:45;;;;;;;5.35;3.05;;;;;;;21.20;42.18;102110.56;4933076;29;20641;-66
2022/06/14 12:19:18;;;;;;;9.18;3.08;;;;;;;21.25;40.61;102113.72;4933633;29;20114;-68
2022/06/14 12:22:26;;;;;;;8.55;3.55;;;;;;;21.27;40.11;102105.50;4988357;28;20033;-65
2022/06/14 12:27:43;;;;;;;9.07;3.55;;;;;;;21.32;40.31;102112.22;5010476;28;20049;-65
2022/06/14 12:30:12;;;;;;;8.35;3.45;;;;;;;21.18;40.72;102096.34;5012931;28;20465;-65